Lerwick, United Kingdom
Current Conditions -  °F | °C
As of 12:50 AM on Tuesday 25 Nov 2014 (Local Time) from EGPB Reporting Station
Few Clouds Few Clouds  
Wind Chill: 10°   Ceiling: Unl
Heat Index: 10°   Visibility: 6mi
Dew Point:   Wind: 15mph
Humidity: 76%   Direction: 280°W
Pressure: 30.09"   Gusts: NA
Location:  60.15°N, 1.15°W
Report Text: EGPB 250050Z AUTO 28013KT 9000 FEW023/// 10/06 Q1019
Loading
Personal Weather Stations






























Interactive Weather Map New forecast layout! Learn more

10-Day Weather Forecast

Advertisements
Track Severe Weather on mobile